createdAt,value
2023-04-02T00:01:23.356Z,0.10
2023-04-02T00:03:54.244Z,0.10
2023-04-02T00:06:33.333Z,0.10
2023-04-02T00:09:22.256Z,0.10
2023-04-02T00:11:54.936Z,0.10
2023-04-02T00:14:33.868Z,0.10
2023-04-02T00:17:04.270Z,0.10
2023-04-02T00:19:36.715Z,0.10
2023-04-02T00:22:07.723Z,0.10
2023-04-02T00:24:34.408Z,0.17
2023-04-02T00:27:01.423Z,0.10
2023-04-02T00:29:28.137Z,0.10
2023-04-02T00:31:55.663Z,0.10
2023-04-02T00:34:38.125Z,0.10
2023-04-02T00:37:05.563Z,0.10
2023-04-02T00:39:39.411Z,0.10
2023-04-02T00:44:38.065Z,0.10
2023-04-02T00:47:30.816Z,0.10
2023-04-02T00:50:04.679Z,0.10
2023-04-02T00:52:33.890Z,0.10
2023-04-02T00:55:24.553Z,0.10
2023-04-02T00:57:52.413Z,0.20
2023-04-02T01:00:29.426Z,0.10
2023-04-02T01:03:34.862Z,0.10
2023-04-02T01:06:05.104Z,0.10
2023-04-02T01:08:43.180Z,0.10
2023-04-02T01:11:45.193Z,0.10
2023-04-02T01:14:24.146Z,0.10
2023-04-02T01:17:00.707Z,0.10
2023-04-02T01:19:55.407Z,0.10
2023-04-02T01:23:08.238Z,0.10
2023-04-02T01:25:41.028Z,0.10
2023-04-02T01:28:19.853Z,0.13
2023-04-02T01:30:52.875Z,0.10
2023-04-02T01:33:23.416Z,0.10
2023-04-02T01:36:00.250Z,0.10
2023-04-02T01:38:34.183Z,0.10
2023-04-02T01:41:09.480Z,0.10
2023-04-02T01:43:39.235Z,0.10
2023-04-02T01:46:25.163Z,0.10
2023-04-02T01:48:54.163Z,0.10
2023-04-02T01:51:33.217Z,0.10
2023-04-02T01:54:04.266Z,0.10
2023-04-02T01:56:31.248Z,0.10
2023-04-02T01:58:59.036Z,0.10
2023-04-02T02:01:42.699Z,0.10
2023-04-02T02:04:14.120Z,0.10
2023-04-02T02:06:41.073Z,0.10
2023-04-02T02:09:12.672Z,0.10
2023-04-02T02:11:40.118Z,0.10
2023-04-02T02:14:15.692Z,0.10
2023-04-02T02:16:43.073Z,0.10
2023-04-02T02:19:33.465Z,0.10
2023-04-02T02:22:14.524Z,0.10
2023-04-02T02:24:42.328Z,0.10
2023-04-02T02:27:24.202Z,0.10
2023-04-02T02:30:13.513Z,0.10
2023-04-02T02:32:48.456Z,0.10
2023-04-02T02:35:21.858Z,0.10
2023-04-02T02:38:33.113Z,0.10
2023-04-02T02:41:20.977Z,0.10
2023-04-02T02:44:00.699Z,0.10
2023-04-02T02:46:30.218Z,0.10
2023-04-02T02:48:59.713Z,0.10
2023-04-02T02:51:31.040Z,0.10
2023-04-02T02:54:04.381Z,0.10
2023-04-02T02:56:37.024Z,0.10
2023-04-02T02:59:07.447Z,0.10
2023-04-02T03:01:39.219Z,0.10
2023-04-02T03:04:06.982Z,0.10
2023-04-02T03:06:36.924Z,0.10
2023-04-02T03:09:16.150Z,0.10
2023-04-02T03:12:05.971Z,0.10
2023-04-02T03:14:39.104Z,0.10
2023-04-02T03:17:34.853Z,0.10
2023-04-02T03:20:10.935Z,0.10
2023-04-02T03:22:45.458Z,0.10
2023-04-02T03:25:23.064Z,0.10
2023-04-02T03:27:54.063Z,0.10
2023-04-02T03:30:26.901Z,0.10
2023-04-02T03:33:00.624Z,0.10
2023-04-02T03:35:45.728Z,0.10
2023-04-02T03:38:15.897Z,0.10
2023-04-02T03:40:55.653Z,0.10
2023-04-02T03:43:26.156Z,0.10
2023-04-02T03:46:09.873Z,0.20
2023-04-02T03:48:45.828Z,0.10
2023-04-02T03:51:24.793Z,0.10
2023-04-02T03:53:51.970Z,0.10
2023-04-02T03:56:40.025Z,0.10
2023-04-02T03:59:41.636Z,0.10
2023-04-02T04:02:21.420Z,0.10
2023-04-02T04:04:48.936Z,0.10
2023-04-02T04:07:28.080Z,0.10
2023-04-02T04:09:55.836Z,0.10
2023-04-02T04:12:30.612Z,0.10
2023-04-02T04:15:13.042Z,0.10
2023-04-02T04:17:56.870Z,0.10
2023-04-02T04:20:47.370Z,0.10
2023-04-02T04:23:30.283Z,0.10
2023-04-02T04:26:02.137Z,0.10
2023-04-02T04:29:00.413Z,0.10
2023-04-02T04:31:39.189Z,0.10
2023-04-02T04:34:19.141Z,0.10
2023-04-02T04:37:01.902Z,0.10
2023-04-02T04:39:45.773Z,0.10
2023-04-02T04:42:20.590Z,0.10
2023-04-02T04:45:00.782Z,0.10
2023-04-02T04:47:34.191Z,0.10
2023-04-02T04:50:16.944Z,0.10
2023-04-02T04:52:44.705Z,0.10
2023-04-02T04:55:26.151Z,0.10
2023-04-02T04:57:59.032Z,0.10
2023-04-02T05:00:38.698Z,0.10
2023-04-02T05:03:27.740Z,0.10
2023-04-02T05:06:02.049Z,0.10
2023-04-02T05:11:08.122Z,0.10
2023-04-02T05:13:51.192Z,0.10
2023-04-02T05:16:28.890Z,0.10
2023-04-02T05:19:07.828Z,0.10
2023-04-02T05:21:55.891Z,0.10
2023-04-02T05:24:35.730Z,0.10
2023-04-02T05:27:13.829Z,0.20
2023-04-02T05:29:44.233Z,0.10
2023-04-02T05:32:17.302Z,0.10
2023-04-02T05:34:50.482Z,0.10
2023-04-02T05:37:21.726Z,0.10
2023-04-02T05:39:59.062Z,0.10
2023-04-02T05:42:35.505Z,0.20
2023-04-02T05:45:19.412Z,0.10
2023-04-02T05:47:52.197Z,0.10
2023-04-02T05:50:43.138Z,0.10
2023-04-02T05:53:34.003Z,0.10
2023-04-02T05:56:29.530Z,0.10
2023-04-02T05:59:10.793Z,0.20
2023-04-02T06:01:47.471Z,0.10
2023-04-02T06:04:33.038Z,0.10
2023-04-02T06:07:18.177Z,0.10
2023-04-02T06:09:51.488Z,0.10
2023-04-02T06:12:43.058Z,0.10
2023-04-02T06:15:22.066Z,0.10
2023-04-02T06:17:53.400Z,0.10
2023-04-02T06:20:21.420Z,0.10
2023-04-02T06:23:04.958Z,0.10
2023-04-02T06:25:37.808Z,0.10
2023-04-02T06:28:15.577Z,0.10
2023-04-02T06:30:52.344Z,0.20
2023-04-02T06:33:20.321Z,0.10
2023-04-02T06:35:51.408Z,0.10
2023-04-02T06:38:31.165Z,0.10
2023-04-02T06:41:20.721Z,0.10
2023-04-02T06:44:15.099Z,0.10
2023-04-02T06:47:27.187Z,0.10
2023-04-02T06:50:20.591Z,0.10
2023-04-02T06:53:06.511Z,0.10
2023-04-02T06:56:04.872Z,0.10
2023-04-02T06:58:33.251Z,0.20
2023-04-02T07:01:00.969Z,0.10
2023-04-02T07:03:40.676Z,0.10
2023-04-02T07:06:21.937Z,0.10
2023-04-02T07:08:51.083Z,0.10
2023-04-02T07:11:22.019Z,0.10
2023-04-02T07:13:51.384Z,0.10
2023-04-02T07:16:28.208Z,0.13
2023-04-02T07:18:56.262Z,0.10
2023-04-02T07:21:26.167Z,0.10
2023-04-02T07:23:54.355Z,0.10
2023-04-02T07:26:25.546Z,0.10
2023-04-02T07:28:52.522Z,0.10
2023-04-02T07:31:24.841Z,0.20
2023-04-02T07:33:52.860Z,0.10
2023-04-02T07:36:23.059Z,0.10
2023-04-02T07:38:50.277Z,0.10
2023-04-02T07:41:17.770Z,0.10
2023-04-02T07:43:44.553Z,0.10
2023-04-02T07:46:12.446Z,0.10
2023-04-02T07:48:40.541Z,0.20
2023-04-02T07:51:19.672Z,0.20
2023-04-02T07:53:50.450Z,0.10
2023-04-02T07:56:19.490Z,0.10
2023-04-02T07:58:46.895Z,0.20
2023-04-02T08:01:24.186Z,0.20
2023-04-02T08:03:53.811Z,0.10
2023-04-02T08:06:21.768Z,0.10
2023-04-02T08:08:48.864Z,0.20
2023-04-02T08:11:16.241Z,0.20
2023-04-02T08:13:43.448Z,0.20
2023-04-02T08:16:10.724Z,0.10
2023-04-02T08:18:37.864Z,0.20
2023-04-02T08:21:08.871Z,0.10
2023-04-02T08:23:36.022Z,0.10
2023-04-02T08:26:03.217Z,0.10
2023-04-02T08:28:30.272Z,0.20
2023-04-02T08:30:57.068Z,0.10
2023-04-02T08:33:23.802Z,0.10
2023-04-02T08:35:51.313Z,0.10
2023-04-02T08:38:19.862Z,0.15
2023-04-02T08:40:50.754Z,0.10
2023-04-02T08:43:51.169Z,0.10
2023-04-02T08:46:21.730Z,0.20
2023-04-02T08:48:55.476Z,0.20
2023-04-02T08:54:08.941Z,0.10
2023-04-02T08:56:52.177Z,0.20
2023-04-02T08:59:47.272Z,0.10
2023-04-02T09:02:16.997Z,0.20
2023-04-02T09:04:43.923Z,0.20
2023-04-02T09:07:15.616Z,0.10
2023-04-02T09:09:43.462Z,0.10
2023-04-02T09:12:27.145Z,0.10
2023-04-02T09:15:31.720Z,0.20
2023-04-02T09:18:04.413Z,0.10
2023-04-02T09:20:31.334Z,0.10
2023-04-02T09:22:59.066Z,0.10
2023-04-02T09:25:34.312Z,0.10
2023-04-02T09:28:03.500Z,0.10
2023-04-02T09:30:56.161Z,0.10
2023-04-02T09:33:41.523Z,0.20
2023-04-02T09:36:32.243Z,0.10
2023-04-02T09:39:02.256Z,0.10
2023-04-02T09:41:30.316Z,0.10
2023-04-02T09:44:23.681Z,0.20
2023-04-02T09:47:04.063Z,0.10
2023-04-02T09:49:38.988Z,0.10
2023-04-02T09:52:25.591Z,0.10
2023-04-02T09:55:21.916Z,0.20
2023-04-02T09:57:50.770Z,0.20
2023-04-02T10:00:32.275Z,0.10
2023-04-02T10:03:19.996Z,0.20
2023-04-02T10:05:47.666Z,0.10
2023-04-02T10:08:19.545Z,0.10
2023-04-02T10:10:50.661Z,0.20
2023-04-02T10:13:24.720Z,0.17
2023-04-02T10:16:00.280Z,0.20
2023-04-02T10:19:02.694Z,0.10
2023-04-02T10:21:33.991Z,0.20
2023-04-02T10:24:03.093Z,0.10
2023-04-02T10:26:57.361Z,0.20
2023-04-02T10:29:42.402Z,0.20
2023-04-02T10:32:16.723Z,0.20
2023-04-02T10:34:55.821Z,0.20
2023-04-02T10:37:40.621Z,0.20
2023-04-02T10:40:27.132Z,0.10
2023-04-02T10:43:15.672Z,0.10
2023-04-02T10:45:54.608Z,0.20
2023-04-02T10:48:45.757Z,0.20
2023-04-02T10:51:27.337Z,0.10
2023-04-02T10:54:22.061Z,0.10
2023-04-02T10:56:53.360Z,0.20
2023-04-02T10:59:26.312Z,0.10
2023-04-02T11:01:56.949Z,0.10
2023-04-02T11:04:37.787Z,0.10
2023-04-02T11:07:14.337Z,0.10
2023-04-02T11:09:46.734Z,0.10
2023-04-02T11:12:44.690Z,0.10
2023-04-02T11:15:19.241Z,0.10
2023-04-02T11:17:46.919Z,0.20
2023-04-02T11:20:43.562Z,0.10
2023-04-02T11:23:14.783Z,0.10
2023-04-02T11:25:42.876Z,0.20
2023-04-02T11:28:29.384Z,0.20
2023-04-02T11:30:57.418Z,0.10
2023-04-02T11:33:42.244Z,0.20
2023-04-02T11:36:49.356Z,0.10
2023-04-02T11:39:55.490Z,0.20
2023-04-02T11:42:25.577Z,0.20
2023-04-02T11:44:53.886Z,0.10
2023-04-02T11:47:25.698Z,0.20
2023-04-02T11:49:55.966Z,0.10
2023-04-02T11:52:24.937Z,0.10
2023-04-02T11:55:18.874Z,0.10
2023-04-02T11:58:08.512Z,0.20
2023-04-02T12:01:15.051Z,0.10
2023-04-02T12:03:54.072Z,0.20
2023-04-02T12:07:00.042Z,0.20
2023-04-02T12:09:35.076Z,0.10
2023-04-02T12:12:17.855Z,0.10
2023-04-02T12:14:47.936Z,0.20
2023-04-02T12:17:34.155Z,0.20
2023-04-02T12:20:03.578Z,0.20
2023-04-02T12:22:33.486Z,0.10
2023-04-02T12:25:03.623Z,0.10
2023-04-02T12:27:30.767Z,0.10
2023-04-02T12:30:11.839Z,0.20
2023-04-02T12:32:38.893Z,0.10
2023-04-02T12:35:06.528Z,0.10
2023-04-02T12:37:33.343Z,0.20
2023-04-02T12:40:14.843Z,0.10
2023-04-02T12:42:41.801Z,0.20
2023-04-02T12:45:25.701Z,0.10
2023-04-02T12:47:54.111Z,0.20
2023-04-02T12:50:22.430Z,0.20
2023-04-02T12:52:55.170Z,0.10
2023-04-02T12:55:27.297Z,0.20
2023-04-02T12:57:58.621Z,0.10
2023-04-02T13:00:25.598Z,0.20
2023-04-02T13:03:01.286Z,0.20
2023-04-02T13:05:52.746Z,0.20
2023-04-02T13:08:27.328Z,0.10
2023-04-02T13:10:59.703Z,0.10
2023-04-02T13:13:38.511Z,0.10
2023-04-02T13:16:17.272Z,0.10
2023-04-02T13:18:46.784Z,0.20
2023-04-02T13:21:16.608Z,0.10
2023-04-02T13:23:44.200Z,0.10
2023-04-02T13:26:22.134Z,0.10
2023-04-02T13:29:11.810Z,0.10
2023-04-02T13:31:38.540Z,0.10
2023-04-02T13:34:05.378Z,0.10
2023-04-02T13:36:32.306Z,0.10
2023-04-02T13:38:59.102Z,0.10
2023-04-02T13:41:27.527Z,0.10
2023-04-02T13:43:56.203Z,0.10
2023-04-02T13:46:29.463Z,0.20
2023-04-02T13:48:57.523Z,0.10
2023-04-02T13:51:32.023Z,0.10
2023-04-02T13:53:58.889Z,0.20
2023-04-02T13:56:25.766Z,0.15
2023-04-02T13:58:52.567Z,0.10
2023-04-02T14:01:21.466Z,0.10
2023-04-02T14:03:48.418Z,0.10
2023-04-02T14:06:29.174Z,0.20
2023-04-02T14:09:20.002Z,0.15
2023-04-02T14:11:57.461Z,0.10
2023-04-02T14:15:01.304Z,0.10
2023-04-02T14:17:34.009Z,0.10
2023-04-02T14:20:17.087Z,0.15
2023-04-02T14:23:10.569Z,0.10
2023-04-02T14:25:43.589Z,0.20
2023-04-02T14:28:23.977Z,0.10
2023-04-02T14:31:27.891Z,0.20
2023-04-02T14:34:06.594Z,0.10
2023-04-02T14:36:58.899Z,0.10
2023-04-02T14:39:32.175Z,0.10
2023-04-02T14:42:22.222Z,0.17
2023-04-02T14:44:59.061Z,0.10
2023-04-02T14:47:31.477Z,0.10
2023-04-02T14:50:11.122Z,0.10
2023-04-02T14:52:42.404Z,0.10
2023-04-02T14:55:18.412Z,0.10
2023-04-02T14:57:53.782Z,0.10
2023-04-02T15:00:24.329Z,0.10
2023-04-02T15:02:58.001Z,0.20
2023-04-02T15:08:24.208Z,0.20
2023-04-02T15:11:08.645Z,0.10
2023-04-02T15:13:47.502Z,0.20
2023-04-02T15:16:23.511Z,0.20
2023-04-02T15:18:52.295Z,0.20
2023-04-02T15:21:29.508Z,0.20
2023-04-02T15:24:22.594Z,0.20
2023-04-02T15:26:55.015Z,0.15
2023-04-02T15:29:53.426Z,0.10
2023-04-02T15:32:32.375Z,0.20
2023-04-02T15:35:17.119Z,0.20
2023-04-02T15:38:05.725Z,0.20
2023-04-02T15:40:49.711Z,0.20
2023-04-02T15:43:21.471Z,0.10
2023-04-02T15:45:59.573Z,0.10
2023-04-02T15:48:38.081Z,0.20
2023-04-02T15:51:50.141Z,0.20
2023-04-02T15:54:34.891Z,0.20
2023-04-02T15:57:45.993Z,0.10
2023-04-02T16:00:31.298Z,0.20
2023-04-02T16:03:35.732Z,0.20
2023-04-02T16:06:32.586Z,0.20
2023-04-02T16:09:06.241Z,0.20
2023-04-02T16:11:33.787Z,0.20
2023-04-02T16:14:27.611Z,0.20
2023-04-02T16:17:03.867Z,0.10
2023-04-02T16:19:41.726Z,0.20
2023-04-02T16:24:42.746Z,0.20
2023-04-02T16:27:18.189Z,0.20
2023-04-02T16:29:57.312Z,0.20
2023-04-02T16:32:49.721Z,0.20
2023-04-02T16:35:43.705Z,0.20
2023-04-02T16:38:38.745Z,0.20
2023-04-02T16:41:33.709Z,0.20
2023-04-02T16:44:38.260Z,0.20
2023-04-02T16:47:49.829Z,0.20
2023-04-02T16:50:28.563Z,0.20
2023-04-02T16:53:14.333Z,0.20
2023-04-02T16:56:05.664Z,0.20
2023-04-02T16:59:01.273Z,0.10
2023-04-02T17:01:52.213Z,0.17
2023-04-02T17:04:31.116Z,0.20
2023-04-02T17:07:05.604Z,0.20
2023-04-02T17:09:48.922Z,0.20
2023-04-02T17:12:31.333Z,0.20
2023-04-02T17:15:03.833Z,0.20
2023-04-02T17:17:32.507Z,0.20
2023-04-02T17:20:01.296Z,0.20
2023-04-02T17:22:31.678Z,0.20
2023-04-02T17:25:01.675Z,0.20
2023-04-02T17:27:36.681Z,0.20
2023-04-02T17:30:15.624Z,0.20
2023-04-02T17:32:43.005Z,0.20
2023-04-02T17:35:12.510Z,0.20
2023-04-02T17:37:46.026Z,0.20
2023-04-02T17:40:22.341Z,0.20
2023-04-02T17:42:55.770Z,0.20
2023-04-02T17:45:44.554Z,0.20
2023-04-02T17:48:47.794Z,0.25
2023-04-02T17:51:30.360Z,0.20
2023-04-02T17:54:18.073Z,0.20
2023-04-02T17:57:04.571Z,0.20
2023-04-02T17:59:52.003Z,0.30
2023-04-02T18:02:56.539Z,0.30
2023-04-02T18:08:18.908Z,0.30
2023-04-02T18:11:04.537Z,0.28
2023-04-02T18:13:57.482Z,0.20
2023-04-02T18:16:24.284Z,0.30
2023-04-02T18:19:06.101Z,0.20
2023-04-02T18:21:38.579Z,0.20
2023-04-02T18:24:21.497Z,0.20
2023-04-02T18:26:57.772Z,0.20
2023-04-02T18:29:30.991Z,0.20
2023-04-02T18:32:19.565Z,0.20
2023-04-02T18:34:59.759Z,0.20
2023-04-02T18:37:48.017Z,0.20
2023-04-02T18:40:17.556Z,0.30
2023-04-02T18:43:08.791Z,0.20
2023-04-02T18:45:35.520Z,0.20
2023-04-02T18:48:30.325Z,0.30
2023-04-02T18:50:59.360Z,0.20
2023-04-02T18:53:26.558Z,0.30
2023-04-02T18:56:00.588Z,0.30
2023-04-02T18:58:34.393Z,0.30
2023-04-02T19:01:01.987Z,0.28
2023-04-02T19:03:36.785Z,0.30
2023-04-02T19:06:16.326Z,0.30
2023-04-02T19:08:48.592Z,0.30
2023-04-02T19:11:27.963Z,0.20
2023-04-02T19:14:18.407Z,0.30
2023-04-02T19:16:57.114Z,0.30
2023-04-02T19:19:26.975Z,0.20
2023-04-02T19:22:04.962Z,0.20
2023-04-02T19:24:50.425Z,0.20
2023-04-02T19:27:59.374Z,0.30
2023-04-02T19:30:53.093Z,0.20
2023-04-02T19:33:30.618Z,0.20
2023-04-02T19:36:27.851Z,0.20
2023-04-02T19:39:22.446Z,0.20
2023-04-02T19:42:11.058Z,0.30
2023-04-02T19:44:44.155Z,0.20
2023-04-02T19:47:11.328Z,0.20
2023-04-02T19:49:37.969Z,0.20
2023-04-02T19:52:05.209Z,0.20
2023-04-02T19:54:31.847Z,0.20
2023-04-02T19:57:00.168Z,0.30
2023-04-02T19:59:27.091Z,0.30
2023-04-02T20:01:53.715Z,0.20
2023-04-02T20:04:20.602Z,0.30
2023-04-02T20:06:47.359Z,0.20
2023-04-02T20:09:14.031Z,0.30
2023-04-02T20:11:41.105Z,0.20
2023-04-02T20:14:07.810Z,0.20
2023-04-02T20:16:36.681Z,0.20
2023-04-02T20:19:03.698Z,0.20
2023-04-02T20:21:38.264Z,0.20
2023-04-02T20:24:08.368Z,0.30
2023-04-02T20:26:35.977Z,0.20
2023-04-02T20:29:02.731Z,0.20
2023-04-02T20:31:31.200Z,0.30
2023-04-02T20:33:59.581Z,0.20
2023-04-02T20:36:26.527Z,0.20
2023-04-02T20:38:53.309Z,0.20
2023-04-02T20:41:21.987Z,0.30
2023-04-02T20:43:50.050Z,0.20
2023-04-02T20:46:17.309Z,0.20
2023-04-02T20:48:44.279Z,0.20
2023-04-02T20:51:14.870Z,0.20
2023-04-02T20:53:42.294Z,0.22
2023-04-02T20:56:14.513Z,0.20
2023-04-02T20:58:42.077Z,0.20
2023-04-02T21:01:10.218Z,0.30
2023-04-02T21:03:37.140Z,0.20
2023-04-02T21:06:04.238Z,0.30
2023-04-02T21:08:31.042Z,0.20
2023-04-02T21:11:05.760Z,0.30
2023-04-02T21:13:33.766Z,0.20
2023-04-02T21:16:00.674Z,0.30
2023-04-02T21:18:27.457Z,0.30
2023-04-02T21:20:58.792Z,0.20
2023-04-02T21:23:26.520Z,0.20
2023-04-02T21:25:57.943Z,0.30
2023-04-02T21:28:25.698Z,0.30
2023-04-02T21:30:52.537Z,0.30
2023-04-02T21:33:19.292Z,0.30
2023-04-02T21:35:46.073Z,0.30
2023-04-02T21:38:12.759Z,0.30
2023-04-02T21:40:41.642Z,0.20
2023-04-02T21:43:08.375Z,0.20
2023-04-02T21:45:35.229Z,0.20
2023-04-02T21:48:02.142Z,0.30
2023-04-02T21:50:28.914Z,0.30
2023-04-02T21:52:55.648Z,0.30
2023-04-02T21:55:22.396Z,0.30
2023-04-02T21:57:49.182Z,0.20
2023-04-02T22:00:16.163Z,0.30
2023-04-02T22:02:42.971Z,0.30
2023-04-02T22:05:09.912Z,0.20
2023-04-02T22:07:36.713Z,0.20
2023-04-02T22:10:03.766Z,0.20
2023-04-02T22:12:30.646Z,0.30
2023-04-02T22:14:57.282Z,0.30
2023-04-02T22:17:24.093Z,0.30
2023-04-02T22:19:50.851Z,0.20
2023-04-02T22:22:17.487Z,0.30
2023-04-02T22:24:44.243Z,0.30
2023-04-02T22:27:12.908Z,0.30
2023-04-02T22:29:39.589Z,0.20
2023-04-02T22:32:06.288Z,0.20
2023-04-02T22:34:33.107Z,0.30
2023-04-02T22:36:59.832Z,0.30
2023-04-02T22:39:26.578Z,0.30
2023-04-02T22:41:53.266Z,0.20
2023-04-02T22:44:19.935Z,0.20
2023-04-02T22:46:46.685Z,0.30
2023-04-02T22:49:19.217Z,0.20
2023-04-02T22:51:46.350Z,0.20
2023-04-02T22:54:13.034Z,0.30
2023-04-02T22:56:39.779Z,0.30
2023-04-02T22:59:06.799Z,0.30
2023-04-02T23:01:35.663Z,0.20
2023-04-02T23:04:02.554Z,0.30
2023-04-02T23:06:29.314Z,0.30
2023-04-02T23:08:56.146Z,0.30
2023-04-02T23:11:26.096Z,0.30
2023-04-02T23:13:54.840Z,0.30
2023-04-02T23:16:23.150Z,0.20
2023-04-02T23:18:50.280Z,0.20
2023-04-02T23:21:18.254Z,0.30
2023-04-02T23:23:45.790Z,0.20
2023-04-02T23:26:21.855Z,0.25
2023-04-02T23:28:50.082Z,0.20
2023-04-02T23:31:19.692Z,0.20
2023-04-02T23:33:46.397Z,0.20
2023-04-02T23:36:18.503Z,0.22
2023-04-02T23:38:45.379Z,0.20
2023-04-02T23:41:16.448Z,0.30
2023-04-02T23:43:43.681Z,0.20
2023-04-02T23:46:10.398Z,0.20
2023-04-02T23:48:37.091Z,0.20
2023-04-02T23:51:04.230Z,0.20
2023-04-02T23:53:30.983Z,0.20
2023-04-02T23:55:57.667Z,0.20
2023-04-02T23:58:24.402Z,0.20
